Terminal Aerodrome Forecast
Issued by NWS St Louis, MO

Home | Current Version | Previous Version | Graphics & Text | Print | Product List | Glossary On
Versions: 1 2 3 4 5 6 7 8 9 10 11 12 13 14 15 16 17 18 19 20 21 22 23 24 25 26 27 28
000
FTUS43 KLSX 191334 AAA
TAFSTL
TAF AMD
KSTL 191334Z 1914/2018 12007KT 2SM -RA BR OVC008
     FM191800 08004KT 4SM -SHRA BR OVC003
     FM200000 VRB03KT 6SM BR OVC003
     FM200600 VRB03KT 1SM BR OVC003
     FM201000 VRB03KT 1/2SM FG OVC003
     FM201600 16005KT 2SM BR BKN008=

USA.gov is the U.S. government's official web portal to all federal, state and local government web resources and services.